createdAt,value
2019-03-22T00:02:20.325Z,8.10
2019-03-22T00:04:52.519Z,8.10
2019-03-22T00:07:24.654Z,8.00
2019-03-22T00:09:57.167Z,8.00
2019-03-22T00:12:29.933Z,8.00
2019-03-22T00:15:02.049Z,8.00
2019-03-22T00:17:34.989Z,8.00
2019-03-22T00:20:07.826Z,8.00
2019-03-22T00:22:40.790Z,8.00
2019-03-22T00:25:13.092Z,8.00
2019-03-22T00:27:45.670Z,8.00
2019-03-22T00:30:18.285Z,7.90
2019-03-22T00:32:50.392Z,7.90
2019-03-22T00:35:22.786Z,7.90
2019-03-22T00:37:54.922Z,7.90
2019-03-22T00:40:27.735Z,7.90
2019-03-22T00:43:00.543Z,7.90
2019-03-22T00:45:33.125Z,7.90
2019-03-22T00:48:05.867Z,7.80
2019-03-22T00:50:38.506Z,7.80
2019-03-22T00:53:10.389Z,7.80
2019-03-22T00:55:43.804Z,7.80
2019-03-22T00:58:16.920Z,7.70
2019-03-22T01:00:48.817Z,7.70
2019-03-22T01:03:21.157Z,7.70
2019-03-22T01:05:53.891Z,7.70
2019-03-22T01:08:26.596Z,7.70
2019-03-22T01:10:58.951Z,7.70
2019-03-22T01:13:32.042Z,7.60
2019-03-22T01:16:04.153Z,7.60
2019-03-22T01:18:36.683Z,7.60
2019-03-22T01:21:09.803Z,7.60
2019-03-22T01:23:43.436Z,7.60
2019-03-22T01:26:16.637Z,7.60
2019-03-22T01:28:48.750Z,7.50
2019-03-22T01:31:21.407Z,7.50
2019-03-22T01:33:53.206Z,7.50
2019-03-22T01:36:25.398Z,7.50
2019-03-22T01:38:57.934Z,7.50
2019-03-22T01:41:30.679Z,7.50
2019-03-22T01:44:04.039Z,7.50
2019-03-22T01:46:36.457Z,7.50
2019-03-22T01:49:09.668Z,7.50
2019-03-22T01:51:42.040Z,7.40
2019-03-22T01:54:14.767Z,7.40
2019-03-22T01:56:46.918Z,7.50
2019-03-22T01:59:19.403Z,7.50
2019-03-22T02:01:52.143Z,7.50
2019-03-22T02:04:24.507Z,7.50
2019-03-22T02:06:56.861Z,7.40
2019-03-22T02:09:30.248Z,7.30
2019-03-22T02:12:03.177Z,7.20
2019-03-22T02:14:35.631Z,7.20
2019-03-22T02:17:08.405Z,7.20
2019-03-22T02:19:41.002Z,7.10
2019-03-22T02:22:13.876Z,7.10
2019-03-22T02:24:46.602Z,7.10
2019-03-22T02:27:19.637Z,7.00
2019-03-22T02:29:54.058Z,7.00
2019-03-22T02:32:26.436Z,7.00
2019-03-22T02:34:59.477Z,7.00
2019-03-22T02:37:32.473Z,6.90
2019-03-22T02:40:05.004Z,6.90
2019-03-22T02:42:37.856Z,6.90
2019-03-22T02:45:11.031Z,6.90
2019-03-22T02:47:44.023Z,6.90
2019-03-22T02:50:19.792Z,6.90
2019-03-22T02:52:51.312Z,6.90
2019-03-22T02:55:24.004Z,6.90
2019-03-22T02:57:56.511Z,6.90
2019-03-22T03:00:28.652Z,6.90
2019-03-22T03:03:01.810Z,6.90
2019-03-22T03:05:34.448Z,6.90
2019-03-22T03:08:06.467Z,6.90
2019-03-22T03:10:39.039Z,6.90
2019-03-22T03:13:11.616Z,6.90
2019-03-22T03:15:43.698Z,6.80
2019-03-22T03:18:16.098Z,6.90
2019-03-22T03:20:48.342Z,6.80
2019-03-22T03:23:20.508Z,6.80
2019-03-22T03:25:52.916Z,6.80
2019-03-22T03:28:36.503Z,6.80
2019-03-22T03:30:59.585Z,6.80
2019-03-22T03:33:32.978Z,6.70
2019-03-22T03:36:04.888Z,6.70
2019-03-22T03:38:36.741Z,6.70
2019-03-22T03:41:09.279Z,6.70
2019-03-22T03:43:41.512Z,6.60
2019-03-22T03:46:13.694Z,6.70
2019-03-22T03:48:46.303Z,6.60
2019-03-22T03:51:18.511Z,6.60
2019-03-22T03:53:50.906Z,6.60
2019-03-22T03:56:23.573Z,6.50
2019-03-22T03:58:56.204Z,6.50
2019-03-22T04:01:29.199Z,6.40
2019-03-22T04:04:01.386Z,6.40
2019-03-22T04:06:33.360Z,6.40
2019-03-22T04:09:07.825Z,6.40
2019-03-22T04:11:40.929Z,6.40
2019-03-22T04:14:12.775Z,6.40
2019-03-22T04:16:45.219Z,6.50
2019-03-22T04:19:17.524Z,6.50
2019-03-22T04:21:49.785Z,6.50
2019-03-22T04:24:21.661Z,6.50
2019-03-22T04:26:54.305Z,6.40
2019-03-22T04:29:26.866Z,6.40
2019-03-22T04:31:59.010Z,6.40
2019-03-22T04:34:31.865Z,6.40
2019-03-22T04:37:04.022Z,6.40
2019-03-22T04:39:37.878Z,6.50
2019-03-22T04:42:11.398Z,6.50
2019-03-22T04:44:43.912Z,6.50
2019-03-22T04:47:21.372Z,6.60
2019-03-22T04:49:56.152Z,6.50
2019-03-22T04:52:29.704Z,6.50
2019-03-22T04:55:04.284Z,6.50
2019-03-22T04:57:38.667Z,6.50
2019-03-22T05:00:12.739Z,6.50
2019-03-22T05:02:46.368Z,6.50
2019-03-22T05:05:21.580Z,6.50
2019-03-22T05:07:55.691Z,6.60
2019-03-22T05:10:29.619Z,6.60
2019-03-22T05:13:04.424Z,6.50
2019-03-22T05:15:37.853Z,6.50
2019-03-22T05:18:11.366Z,6.50
2019-03-22T05:20:47.292Z,6.50
2019-03-22T05:23:22.860Z,6.60
2019-03-22T05:25:59.945Z,6.60
2019-03-22T05:28:34.536Z,6.60
2019-03-22T05:32:00.049Z,6.60
2019-03-22T05:34:32.158Z,6.70
2019-03-22T05:37:04.722Z,6.80
2019-03-22T05:39:37.737Z,6.90
2019-03-22T05:42:09.930Z,7.00
2019-03-22T05:44:42.361Z,7.20
2019-03-22T05:47:15.122Z,7.40
2019-03-22T05:49:48.355Z,7.60
2019-03-22T05:52:20.523Z,7.80
2019-03-22T05:54:53.149Z,7.90
2019-03-22T05:57:25.043Z,8.00
2019-03-22T05:59:57.504Z,8.10
2019-03-22T06:02:30.608Z,8.20
2019-03-22T06:05:03.205Z,8.40
2019-03-22T06:07:37.143Z,8.50
2019-03-22T06:10:10.861Z,8.70
2019-03-22T06:12:42.746Z,8.80
2019-03-22T06:15:15.652Z,9.10
2019-03-22T06:17:51.962Z,9.20
2019-03-22T06:20:22.114Z,9.50
2019-03-22T06:22:54.499Z,9.70
2019-03-22T06:25:27.224Z,9.70
2019-03-22T06:28:00.256Z,9.60
2019-03-22T06:30:33.470Z,9.60
2019-03-22T06:33:07.376Z,9.60
2019-03-22T06:35:39.601Z,9.70
2019-03-22T06:38:12.063Z,9.80
2019-03-22T06:40:44.399Z,9.90
2019-03-22T06:43:16.266Z,9.80
2019-03-22T06:45:48.888Z,9.80
2019-03-22T06:48:21.245Z,9.90
2019-03-22T06:50:53.332Z,10.00
2019-03-22T06:53:25.240Z,10.10
2019-03-22T06:55:57.424Z,10.10
2019-03-22T06:58:29.332Z,10.20
2019-03-22T07:01:01.706Z,10.10
2019-03-22T07:03:34.600Z,10.20
2019-03-22T07:06:06.484Z,10.20
2019-03-22T07:08:39.014Z,10.30
2019-03-22T07:11:12.985Z,10.40
2019-03-22T07:13:46.091Z,10.50
2019-03-22T07:16:18.635Z,10.70
2019-03-22T07:18:51.087Z,10.90
2019-03-22T07:21:24.307Z,11.00
2019-03-22T07:23:57.301Z,11.10
2019-03-22T07:26:30.200Z,11.20
2019-03-22T07:29:03.003Z,11.30
2019-03-22T07:31:36.040Z,11.50
2019-03-22T07:34:08.370Z,11.50
2019-03-22T07:36:40.683Z,11.60
2019-03-22T07:39:13.050Z,11.60
2019-03-22T07:41:45.134Z,11.70
2019-03-22T07:44:17.807Z,11.80
2019-03-22T07:46:49.612Z,12.20
2019-03-22T07:49:21.668Z,12.80
2019-03-22T07:51:53.734Z,13.30
2019-03-22T07:54:26.027Z,13.70
2019-03-22T07:56:58.653Z,14.00
2019-03-22T07:59:31.258Z,14.00
2019-03-22T08:02:04.780Z,14.10
2019-03-22T08:04:36.619Z,14.20
2019-03-22T08:07:09.462Z,14.00
2019-03-22T08:09:42.064Z,13.80
2019-03-22T08:12:14.388Z,13.80
2019-03-22T08:14:46.863Z,13.80
2019-03-22T08:17:19.988Z,13.70
2019-03-22T08:19:52.409Z,13.70
2019-03-22T08:22:24.950Z,13.90
2019-03-22T08:24:56.727Z,14.30
2019-03-22T08:27:29.683Z,14.50
2019-03-22T08:30:02.167Z,14.90
2019-03-22T08:32:34.712Z,15.10
2019-03-22T08:35:07.279Z,15.30
2019-03-22T08:37:52.114Z,15.30
2019-03-22T08:40:14.918Z,15.80
2019-03-22T08:42:46.773Z,16.20
2019-03-22T08:45:19.868Z,16.40
2019-03-22T08:47:52.294Z,16.30
2019-03-22T08:50:24.691Z,16.20
2019-03-22T08:52:57.642Z,15.90
2019-03-22T08:55:29.461Z,15.60
2019-03-22T08:58:01.904Z,15.40
2019-03-22T09:00:39.590Z,15.60
2019-03-22T09:03:08.578Z,16.00
2019-03-22T09:05:41.880Z,16.60
2019-03-22T09:08:16.082Z,16.70
2019-03-22T09:10:48.381Z,17.30
2019-03-22T09:13:21.911Z,17.00
2019-03-22T09:15:54.388Z,16.80
2019-03-22T09:18:26.569Z,16.20
2019-03-22T09:20:59.374Z,16.00
2019-03-22T09:23:31.517Z,15.80
2019-03-22T09:26:03.997Z,15.80
2019-03-22T09:28:36.242Z,15.90
2019-03-22T09:31:10.645Z,15.90
2019-03-22T09:33:42.964Z,16.50
2019-03-22T09:36:15.401Z,16.60
2019-03-22T09:38:47.762Z,16.20
2019-03-22T09:41:20.178Z,15.90
2019-03-22T09:43:53.359Z,15.50
2019-03-22T09:46:25.690Z,15.90
2019-03-22T09:48:59.511Z,16.30
2019-03-22T09:51:31.688Z,17.00
2019-03-22T09:54:03.792Z,16.80
2019-03-22T09:56:46.464Z,17.20
2019-03-22T09:59:11.081Z,17.60
2019-03-22T10:01:43.566Z,17.80
2019-03-22T10:04:15.738Z,17.70
2019-03-22T10:06:47.949Z,17.50
2019-03-22T10:09:20.078Z,17.70
2019-03-22T10:11:52.442Z,18.00
2019-03-22T10:14:25.542Z,18.20
2019-03-22T10:16:57.750Z,18.80
2019-03-22T10:19:30.704Z,18.80
2019-03-22T10:22:03.437Z,18.30
2019-03-22T10:24:36.196Z,18.00
2019-03-22T10:27:08.672Z,17.60
2019-03-22T10:29:41.592Z,17.60
2019-03-22T10:32:14.231Z,17.50
2019-03-22T10:34:46.720Z,17.80
2019-03-22T10:37:20.022Z,18.10
2019-03-22T10:39:52.365Z,18.10
2019-03-22T10:42:24.853Z,17.70
2019-03-22T10:44:57.568Z,17.60
2019-03-22T10:47:30.022Z,17.40
2019-03-22T10:50:02.090Z,17.50
2019-03-22T10:52:35.542Z,18.00
2019-03-22T10:55:23.469Z,17.60
2019-03-22T10:57:41.947Z,17.30
2019-03-22T11:00:17.854Z,17.10
2019-03-22T11:02:50.160Z,17.30
2019-03-22T11:05:22.838Z,17.10
2019-03-22T11:07:55.628Z,16.60
2019-03-22T11:10:28.233Z,16.40
2019-03-22T11:13:00.779Z,16.40
2019-03-22T11:15:33.174Z,16.90
2019-03-22T11:18:05.734Z,17.20
2019-03-22T11:20:37.866Z,17.50
2019-03-22T11:23:10.260Z,17.30
2019-03-22T11:25:42.768Z,17.60
2019-03-22T11:28:15.423Z,17.50
2019-03-22T11:30:49.255Z,17.20
2019-03-22T11:33:22.133Z,17.00
2019-03-22T11:35:54.587Z,16.90
2019-03-22T11:38:27.603Z,16.90
2019-03-22T11:41:00.287Z,16.80
2019-03-22T11:43:33.422Z,16.50
2019-03-22T11:46:05.390Z,16.60
2019-03-22T11:48:37.535Z,16.60
2019-03-22T11:51:09.916Z,16.30
2019-03-22T11:53:42.225Z,16.20
2019-03-22T11:56:15.058Z,16.10
2019-03-22T11:58:47.189Z,16.10
2019-03-22T12:01:22.342Z,16.30
2019-03-22T12:03:54.681Z,16.30
2019-03-22T12:06:27.407Z,16.20
2019-03-22T12:08:59.296Z,16.20
2019-03-22T12:11:32.886Z,16.10
2019-03-22T12:14:05.678Z,16.40
2019-03-22T12:16:38.861Z,16.60
2019-03-22T12:19:12.090Z,16.60
2019-03-22T12:21:44.185Z,16.50
2019-03-22T12:24:18.733Z,16.40
2019-03-22T12:26:50.965Z,16.40
2019-03-22T12:29:24.437Z,16.40
2019-03-22T12:31:56.490Z,16.40
2019-03-22T12:34:28.925Z,16.50
2019-03-22T12:37:01.912Z,16.50
2019-03-22T12:39:34.157Z,16.50
2019-03-22T12:42:07.650Z,16.60
2019-03-22T12:44:40.123Z,16.60
2019-03-22T12:47:12.056Z,16.70
2019-03-22T12:49:43.882Z,16.80
2019-03-22T12:52:18.706Z,16.90
2019-03-22T12:54:51.242Z,16.90
2019-03-22T12:57:23.430Z,16.90
2019-03-22T12:59:56.087Z,16.90
2019-03-22T13:02:27.911Z,16.90
2019-03-22T13:05:01.381Z,16.80
2019-03-22T13:07:34.396Z,16.80
2019-03-22T13:10:09.321Z,16.90
2019-03-22T13:12:41.923Z,16.90
2019-03-22T13:15:14.212Z,17.10
2019-03-22T13:17:46.605Z,17.10
2019-03-22T13:20:19.245Z,17.20
2019-03-22T13:22:51.714Z,17.20
2019-03-22T13:25:25.329Z,17.30
2019-03-22T13:27:58.242Z,17.40
2019-03-22T13:30:36.047Z,17.50
2019-03-22T13:33:08.535Z,17.60
2019-03-22T13:35:42.013Z,17.60
2019-03-22T13:38:16.139Z,17.70
2019-03-22T13:40:48.685Z,17.90
2019-03-22T13:43:21.511Z,18.00
2019-03-22T13:45:54.090Z,18.10
2019-03-22T13:48:26.580Z,18.20
2019-03-22T13:50:59.096Z,18.20
2019-03-22T13:53:32.303Z,18.20
2019-03-22T13:56:04.646Z,18.20
2019-03-22T13:58:38.727Z,18.20
2019-03-22T14:01:11.127Z,18.20
2019-03-22T14:03:43.235Z,18.20
2019-03-22T14:06:15.664Z,18.30
2019-03-22T14:08:48.531Z,18.40
2019-03-22T14:11:20.372Z,18.40
2019-03-22T14:13:52.589Z,18.30
2019-03-22T14:16:25.694Z,18.30
2019-03-22T14:18:59.918Z,18.40
2019-03-22T14:21:31.997Z,18.30
2019-03-22T14:24:04.304Z,18.40
2019-03-22T14:26:36.522Z,18.30
2019-03-22T14:29:09.300Z,18.30
2019-03-22T14:31:41.826Z,18.40
2019-03-22T14:34:13.973Z,18.30
2019-03-22T14:36:47.761Z,18.30
2019-03-22T14:39:20.078Z,18.30
2019-03-22T14:41:52.420Z,18.20
2019-03-22T14:44:25.891Z,18.40
2019-03-22T14:46:58.364Z,18.30
2019-03-22T14:49:31.127Z,18.30
2019-03-22T14:52:03.335Z,18.30
2019-03-22T14:54:35.143Z,18.30
2019-03-22T14:57:07.437Z,18.30
2019-03-22T14:59:39.674Z,18.30
2019-03-22T15:02:12.060Z,18.20
2019-03-22T15:04:44.665Z,18.20
2019-03-22T15:07:19.895Z,18.20
2019-03-22T15:09:51.163Z,18.20
2019-03-22T15:12:23.897Z,18.30
2019-03-22T15:15:17.759Z,18.30
2019-03-22T15:18:14.879Z,18.30
2019-03-22T15:21:15.815Z,18.30
2019-03-22T15:24:06.033Z,18.30
2019-03-22T15:27:09.678Z,18.30
2019-03-22T15:29:59.709Z,18.10
2019-03-22T15:32:49.958Z,18.20
2019-03-22T15:36:00.280Z,18.10
2019-03-22T15:38:59.327Z,18.10
2019-03-22T15:41:31.581Z,18.10
2019-03-22T15:44:03.960Z,18.10
2019-03-22T15:46:36.587Z,18.00
2019-03-22T15:49:09.414Z,18.00
2019-03-22T15:51:41.824Z,18.00
2019-03-22T15:54:14.207Z,18.00
2019-03-22T15:56:47.078Z,18.00
2019-03-22T15:59:20.351Z,18.00
2019-03-22T16:01:52.334Z,18.00
2019-03-22T16:04:25.271Z,17.90
2019-03-22T16:06:57.244Z,17.80
2019-03-22T16:09:31.117Z,17.70
2019-03-22T16:12:03.703Z,17.70
2019-03-22T16:14:37.181Z,17.60
2019-03-22T16:17:10.208Z,17.60
2019-03-22T16:19:42.636Z,17.60
2019-03-22T16:22:14.669Z,17.50
2019-03-22T16:24:47.316Z,17.50
2019-03-22T16:27:19.678Z,17.50
2019-03-22T16:29:51.821Z,17.50
2019-03-22T16:32:24.890Z,17.50
2019-03-22T16:34:57.318Z,17.50
2019-03-22T16:37:30.785Z,17.40
2019-03-22T16:40:04.655Z,17.40
2019-03-22T16:42:36.925Z,17.40
2019-03-22T16:45:10.621Z,17.40
2019-03-22T16:47:42.964Z,17.30
2019-03-22T16:50:24.995Z,17.20
2019-03-22T16:52:56.822Z,17.20
2019-03-22T16:55:29.214Z,17.10
2019-03-22T16:58:01.335Z,16.90
2019-03-22T17:00:34.907Z,16.90
2019-03-22T17:03:08.582Z,16.90
2019-03-22T17:05:41.119Z,16.80
2019-03-22T17:08:13.682Z,16.70
2019-03-22T17:10:46.467Z,16.60
2019-03-22T17:13:20.707Z,16.60
2019-03-22T17:15:52.889Z,16.60
2019-03-22T17:18:25.696Z,16.50
2019-03-22T17:20:57.895Z,16.30
2019-03-22T17:23:30.915Z,16.30
2019-03-22T17:26:03.627Z,16.10
2019-03-22T17:28:36.444Z,16.00
2019-03-22T17:31:08.634Z,15.90
2019-03-22T17:33:46.164Z,15.70
2019-03-22T17:36:32.235Z,15.60
2019-03-22T17:39:13.620Z,15.50
2019-03-22T17:41:59.150Z,15.30
2019-03-22T17:44:35.835Z,15.00
2019-03-22T17:47:14.713Z,14.80
2019-03-22T17:49:48.751Z,14.60
2019-03-22T17:52:20.819Z,14.50
2019-03-22T17:54:53.240Z,14.40
2019-03-22T17:57:26.004Z,14.30
2019-03-22T17:59:59.401Z,14.10
2019-03-22T18:02:31.291Z,14.00
2019-03-22T18:05:03.872Z,13.90
2019-03-22T18:07:36.082Z,13.80
2019-03-22T18:10:10.488Z,13.70
2019-03-22T18:12:42.879Z,13.60
2019-03-22T18:15:15.277Z,13.60
2019-03-22T18:17:53.587Z,13.40
2019-03-22T18:20:25.425Z,13.40
2019-03-22T18:22:58.333Z,13.30
2019-03-22T18:25:30.549Z,13.20
2019-03-22T18:28:03.193Z,13.20
2019-03-22T18:30:35.015Z,13.10
2019-03-22T18:33:07.227Z,13.00
2019-03-22T18:35:39.672Z,13.00
2019-03-22T18:38:12.668Z,12.90
2019-03-22T18:40:45.106Z,12.90
2019-03-22T18:43:17.239Z,12.90
2019-03-22T18:45:49.695Z,12.80
2019-03-22T18:48:22.080Z,12.70
2019-03-22T18:50:56.906Z,12.70
2019-03-22T18:53:28.743Z,12.70
2019-03-22T18:56:01.345Z,12.60
2019-03-22T18:58:35.239Z,12.50
2019-03-22T19:01:07.399Z,12.50
2019-03-22T19:03:40.150Z,12.40
2019-03-22T19:06:12.619Z,12.40
2019-03-22T19:08:45.249Z,12.40
2019-03-22T19:11:18.067Z,12.30
2019-03-22T19:13:49.957Z,12.30
2019-03-22T19:16:22.439Z,12.30
2019-03-22T19:18:55.528Z,12.30
2019-03-22T19:21:28.308Z,12.20
2019-03-22T19:24:01.433Z,12.20
2019-03-22T19:26:33.806Z,12.10
2019-03-22T19:29:06.232Z,12.10
2019-03-22T19:31:38.684Z,12.00
2019-03-22T19:34:11.383Z,11.90
2019-03-22T19:36:43.850Z,11.90
2019-03-22T19:39:16.533Z,11.80
2019-03-22T19:41:48.892Z,11.70
2019-03-22T19:44:21.597Z,11.70
2019-03-22T19:46:54.090Z,11.60
2019-03-22T19:49:26.521Z,11.50
2019-03-22T19:51:58.992Z,11.60
2019-03-22T19:54:31.805Z,11.70
2019-03-22T19:57:04.499Z,11.80
2019-03-22T19:59:37.265Z,11.80
2019-03-22T20:02:10.560Z,11.70
2019-03-22T20:04:44.091Z,11.70
2019-03-22T20:07:16.220Z,11.70
2019-03-22T20:09:48.776Z,11.60
2019-03-22T20:12:21.088Z,11.50
2019-03-22T20:14:53.194Z,11.50
2019-03-22T20:17:25.551Z,11.50
2019-03-22T20:19:57.782Z,11.50
2019-03-22T20:22:30.007Z,11.50
2019-03-22T20:25:02.971Z,11.50
2019-03-22T20:27:34.873Z,11.50
2019-03-22T20:30:08.874Z,11.50
2019-03-22T20:32:41.307Z,11.60
2019-03-22T20:35:16.618Z,11.90
2019-03-22T20:37:47.532Z,12.00
2019-03-22T20:40:20.325Z,12.10
2019-03-22T20:42:52.497Z,12.20
2019-03-22T20:45:24.686Z,12.20
2019-03-22T20:47:57.761Z,12.10
2019-03-22T20:50:35.709Z,12.10
2019-03-22T20:53:03.653Z,12.00
2019-03-22T20:55:36.914Z,12.00
2019-03-22T20:58:09.420Z,11.90
2019-03-22T21:00:41.624Z,11.80
2019-03-22T21:03:14.355Z,11.80
2019-03-22T21:05:46.951Z,11.80
2019-03-22T21:08:19.865Z,11.90
2019-03-22T21:10:52.449Z,11.80
2019-03-22T21:13:25.387Z,11.70
2019-03-22T21:15:57.566Z,11.70
2019-03-22T21:18:30.977Z,11.60
2019-03-22T21:21:03.354Z,11.50
2019-03-22T21:23:36.522Z,11.50
2019-03-22T21:26:10.282Z,11.40
2019-03-22T21:28:42.204Z,11.40
2019-03-22T21:31:15.824Z,11.40
2019-03-22T21:33:48.229Z,11.40
2019-03-22T21:36:20.622Z,11.40
2019-03-22T21:38:52.834Z,11.30
2019-03-22T21:41:25.345Z,11.20
2019-03-22T21:43:58.555Z,11.10
2019-03-22T21:46:31.394Z,11.00
2019-03-22T21:49:03.824Z,10.90
2019-03-22T21:51:35.667Z,10.90
2019-03-22T21:54:08.500Z,11.00
2019-03-22T21:56:41.461Z,11.10
2019-03-22T21:59:13.990Z,11.30
2019-03-22T22:01:46.378Z,11.40
2019-03-22T22:04:19.928Z,11.50
2019-03-22T22:06:52.830Z,11.60
2019-03-22T22:09:25.406Z,11.70
2019-03-22T22:11:58.225Z,11.60
2019-03-22T22:14:40.389Z,11.50
2019-03-22T22:17:12.304Z,11.30
2019-03-22T22:19:44.858Z,11.20
2019-03-22T22:22:17.816Z,11.10
2019-03-22T22:24:50.263Z,11.00
2019-03-22T22:27:23.401Z,10.90
2019-03-22T22:29:55.955Z,10.80
2019-03-22T22:32:28.137Z,10.70
2019-03-22T22:35:00.500Z,10.60
2019-03-22T22:37:33.221Z,10.60
2019-03-22T22:40:06.400Z,10.50
2019-03-22T22:42:38.606Z,10.50
2019-03-22T22:45:10.973Z,10.40
2019-03-22T22:47:43.478Z,10.40
2019-03-22T22:50:16.644Z,10.40
2019-03-22T22:52:50.158Z,10.40
2019-03-22T22:55:22.051Z,10.60
2019-03-22T22:57:54.631Z,10.80
2019-03-22T23:00:29.272Z,10.90
2019-03-22T23:03:03.577Z,10.90
2019-03-22T23:05:36.910Z,10.90
2019-03-22T23:08:09.979Z,10.90
2019-03-22T23:10:43.161Z,10.80
2019-03-22T23:13:15.795Z,10.60
2019-03-22T23:15:47.990Z,10.50
2019-03-22T23:18:20.685Z,10.30
2019-03-22T23:20:53.455Z,10.20
2019-03-22T23:23:25.795Z,10.00
2019-03-22T23:25:58.579Z,9.90
2019-03-22T23:28:31.176Z,9.80
2019-03-22T23:31:03.342Z,9.80
2019-03-22T23:33:36.123Z,9.80
2019-03-22T23:36:08.800Z,9.80
2019-03-22T23:38:42.285Z,9.90
2019-03-22T23:41:14.354Z,10.00
2019-03-22T23:43:46.693Z,10.00
2019-03-22T23:46:20.061Z,10.00
2019-03-22T23:48:52.148Z,10.10
2019-03-22T23:51:25.599Z,10.30
2019-03-22T23:53:58.029Z,10.40
2019-03-22T23:56:30.300Z,10.30
2019-03-22T23:59:02.887Z,10.30
